KCRS/CRS METAR and TAF weather

Enter ICAO airport designator
Station Type Date Time Source
KCRS METAR 2020/07/06 22:53 UTC NOAA

KCRS 062253Z AUTO 33013G22KT 4SM +TSRA BR FEW015 BKN034 OVC041 23/22 A2989 RMK AO2 LTG DSNT SW-N TSB27 SLP118 P0047 T02330217


Station Type Date Time Source
KCRS Decoded METAR 2020/07/06 22:53 UTC NOAA

CORSICANA AIRFIELD, TX, United States (KCRS) 32-01N 96-23W 133M
Jul 06, 2020 - 06:53 PM EDT / 2020.07.06 2253 UTC
Wind: from the NNW (330 degrees) at 15 MPH (13 KT) gusting to 25 MPH (22 KT):0
Visibility: 4 mile(s):0
Sky conditions: overcast
Weather: heavy rain with thunder; mist; Lightning observed
Precipitation last hour: 0.47 inches
Temperature: 73.9 F (23.3 C)
Dew Point: 71.1 F (21.7 C)
Relative Humidity: 90%
Pressure (altimeter): 29.89 in. Hg (1012 hPa)
ob: KCRS 062253Z AUTO 33013G22KT 4SM +TSRA BR FEW015 BKN034 OVC041 23/22 A2989 RMK AO2 LTG DSNT SW-N TSB27 SLP118 P0047 T02330217
cycle: 23

Station Type Date Time Source
KCRS TAF UTC NOAA

Error!

Example: see airport list